Time;durP1;ratioP1;P1;durP2;ratioP2;P2;SDS_P1;SDS_P2;PMS_P1;PMS_P2;Temp;Humidity;BMP_temperature;BMP_pressure;BME280_temperature;BME280_humidity;BME280_pressure;Samples;Min_cycle;Max_cycle;Signal;HPM_P1;HPM_P2
2023/07/07 00:01:55;;;;;;;0.10;0.10;;;;;;;19.13;75.54;99955.59;7361537;19;20694;-55
2023/07/07 00:04:21;;;;;;;0.10;0.10;;;;;;;19.12;75.12;99951.25;7361000;19;20021;-57
2023/07/07 00:06:47;;;;;;;0.10;0.10;;;;;;;19.12;75.18;99951.25;7361332;19;20007;-57
2023/07/07 00:09:13;;;;;;;0.10;0.10;;;;;;;19.13;75.21;99947.66;7360573;19;20014;-56
2023/07/07 00:11:39;;;;;;;0.10;0.10;;;;;;;19.16;75.04;99952.75;7362278;19;20078;-56
2023/07/07 00:14:04;;;;;;;0.10;0.10;;;;;;;19.14;75.28;99950.19;7359890;19;20007;-55
2023/07/07 00:16:29;;;;;;;0.10;0.10;;;;;;;19.16;75.29;99960.69;7361256;19;20294;-58
2023/07/07 00:18:59;;;;;;;0.10;0.10;;;;;;;19.17;75.15;99954.44;7359134;19;21117;-57
2023/07/07 00:21:25;;;;;;;0.10;0.10;;;;;;;19.17;75.09;99952.63;7362135;19;20042;-57
2023/07/07 00:23:55;;;;;;;0.10;0.10;;;;;;;19.21;75.05;99945.31;7359540;19;20025;-56
2023/07/07 00:26:23;;;;;;;0.10;0.10;;;;;;;19.20;75.00;99959.47;7364995;19;20070;-57
2023/07/07 00:28:49;;;;;;;0.10;0.10;;;;;;;19.18;75.17;99956.94;7364801;19;20017;-57
2023/07/07 00:31:15;;;;;;;0.10;0.10;;;;;;;19.19;74.84;99957.78;7365148;19;20017;-57
2023/07/07 00:33:41;;;;;;;0.08;0.08;;;;;;;19.17;75.05;99949.13;7363924;19;20014;-57
2023/07/07 00:36:06;;;;;;;0.10;0.10;;;;;;;19.17;75.56;99955.28;7366771;19;20018;-55
2023/07/07 00:38:31;;;;;;;0.10;0.10;;;;;;;19.17;75.05;99957.06;7362710;19;20010;-57
2023/07/07 00:41:01;;;;;;;0.10;0.10;;;;;;;19.20;75.19;99959.47;7364635;19;20830;-55
2023/07/07 00:43:27;;;;;;;0.10;0.10;;;;;;;19.17;75.03;99972.94;7364028;19;20014;-57
2023/07/07 00:45:53;;;;;;;0.10;0.10;;;;;;;19.05;75.83;99949.97;7364752;19;20043;-57
2023/07/07 00:48:22;;;;;;;0.10;0.10;;;;;;;19.17;75.58;99976.44;7364172;19;20038;-57
2023/07/07 00:50:55;;;;;;;0.10;0.10;;;;;;;19.19;75.48;99971.03;7364589;19;20018;-57
2023/07/07 00:53:21;;;;;;;0.10;0.10;;;;;;;19.15;75.79;99973.03;7362408;19;20060;-55
2023/07/07 00:55:51;;;;;;;0.05;0.05;;;;;;;19.18;75.67;99972.00;7364371;19;25602;-57
2023/07/07 00:58:20;;;;;;;0.15;0.15;;;;;;;19.18;75.37;99967.53;7363064;19;20043;-57
2023/07/07 01:00:52;;;;;;;0.20;0.20;;;;;;;19.18;75.57;99983.41;7365168;19;20088;-55
2023/07/07 01:03:26;;;;;;;0.10;0.10;;;;;;;19.21;75.53;99992.97;7363556;19;20480;-57
2023/07/07 01:05:56;;;;;;;0.10;0.10;;;;;;;19.22;75.53;99994.66;7364322;19;20563;-56
2023/07/07 01:08:22;;;;;;;0.00;0.00;;;;;;;19.20;75.62;99980.66;7358112;19;20630;-57
2023/07/07 01:10:48;;;;;;;0.10;0.10;;;;;;;19.22;75.28;99972.63;7363713;19;20037;-56
2023/07/07 01:13:13;;;;;;;0.10;0.10;;;;;;;19.12;75.30;99967.13;7362762;19;20014;-58
2023/07/07 01:16:00;;;;;;;0.10;0.10;;;;;;;19.32;75.81;100001.00;7364124;19;20029;-57
2023/07/07 01:19:15;;;;;;;0.10;0.10;;;;;;;19.36;75.66;99986.59;7361411;19;20372;-56
2023/07/07 01:22:04;;;;;;;0.10;0.10;;;;;;;19.38;75.16;99994.41;7260577;19;2004442;-56
2023/07/07 01:24:59;;;;;;;0.10;0.10;;;;;;;19.42;74.91;99985.31;7362968;19;20566;-57
2023/07/07 01:27:32;;;;;;;0.10;0.10;;;;;;;19.40;75.43;99996.00;7261666;19;2004308;-57
2023/07/07 01:30:16;;;;;;;0.10;0.10;;;;;;;19.41;75.52;100003.00;7362509;19;20044;-56
2023/07/07 01:32:43;;;;;;;0.10;0.10;;;;;;;19.41;75.24;99995.06;7363245;19;20018;-56
2023/07/07 01:35:14;;;;;;;0.10;0.10;;;;;;;19.43;75.10;100001.06;7363838;19;20034;-55
2023/07/07 01:37:40;;;;;;;0.10;0.10;;;;;;;19.36;75.60;99978.66;7361544;19;20870;-56
2023/07/07 01:40:06;;;;;;;0.10;0.10;;;;;;;19.40;75.52;99995.16;7365045;19;19999;-57
2023/07/07 01:42:46;;;;;;;0.10;0.10;;;;;;;19.35;75.90;99984.03;7363054;19;20015;-57
2023/07/07 01:45:18;;;;;;;0.10;0.10;;;;;;;19.44;75.88;99994.81;7359212;19;20022;-57
2023/07/07 01:47:52;;;;;;;0.10;0.10;;;;;;;19.48;75.57;99999.91;7364161;19;20470;-57
2023/07/07 01:50:24;;;;;;;0.10;0.10;;;;;;;19.50;75.99;100008.59;7364413;19;20045;-57
2023/07/07 01:52:57;;;;;;;0.10;0.10;;;;;;;19.50;75.55;100003.28;7361079;19;20658;-57
2023/07/07 01:55:27;;;;;;;0.10;0.10;;;;;;;19.49;76.05;99996.31;7362569;19;20014;-56
2023/07/07 01:57:57;;;;;;;0.20;0.20;;;;;;;19.52;76.17;99996.09;7358545;19;20031;-56
2023/07/07 02:00:24;;;;;;;0.10;0.10;;;;;;;19.40;76.09;99988.03;7362215;19;20125;-57
2023/07/07 02:02:51;;;;;;;0.10;0.10;;;;;;;19.54;75.95;100010.06;7358290;19;20073;-57
2023/07/07 02:05:17;;;;;;;0.10;0.10;;;;;;;19.55;75.83;100009.09;7356668;19;20015;-57
2023/07/07 02:07:43;;;;;;;0.10;0.10;;;;;;;19.56;75.98;100001.03;7359264;19;20043;-55
2023/07/07 02:10:09;;;;;;;0.10;0.10;;;;;;;19.57;75.67;100004.56;7359139;19;20017;-55
2023/07/07 02:12:34;;;;;;;0.10;0.10;;;;;;;19.59;75.75;100002.63;7355746;19;20014;-57
2023/07/07 02:15:00;;;;;;;0.10;0.10;;;;;;;19.59;75.58;100003.50;7358399;19;20007;-57
2023/07/07 02:17:28;;;;;;;0.10;0.10;;;;;;;19.60;75.99;100004.34;7358005;19;20018;-57
2023/07/07 02:19:55;;;;;;;0.10;0.10;;;;;;;19.62;75.98;100005.13;7358097;19;20029;-57
2023/07/07 02:22:20;;;;;;;0.10;0.10;;;;;;;19.65;76.11;100018.13;7355837;19;20026;-55
2023/07/07 02:24:46;;;;;;;0.10;0.10;;;;;;;19.63;75.79;100006.81;7360004;19;20025;-56
2023/07/07 02:27:11;;;;;;;0.10;0.10;;;;;;;19.66;75.46;100015.34;7362458;19;20064;-57
2023/07/07 02:29:37;;;;;;;0.10;0.10;;;;;;;19.66;75.97;100012.69;7361607;19;20028;-55
2023/07/07 02:32:04;;;;;;;0.10;0.10;;;;;;;19.69;75.97;100014.31;7360396;19;20029;-55
2023/07/07 02:34:29;;;;;;;0.10;0.10;;;;;;;19.72;75.98;100019.41;7361182;19;20125;-57
2023/07/07 02:36:55;;;;;;;0.10;0.10;;;;;;;19.69;75.06;100003.72;7357191;19;20070;-55
2023/07/07 02:39:20;;;;;;;0.10;0.10;;;;;;;19.72;75.53;100010.56;7357721;19;20037;-57
2023/07/07 02:41:46;;;;;;;0.10;0.10;;;;;;;19.71;75.24;100007.09;7355345;19;20094;-56
2023/07/07 02:44:12;;;;;;;0.10;0.10;;;;;;;19.71;75.16;100017.69;7360646;19;20013;-56
2023/07/07 02:46:38;;;;;;;0.10;0.10;;;;;;;19.66;75.44;100019.81;7361424;19;20634;-56
2023/07/07 02:49:03;;;;;;;0.10;0.10;;;;;;;19.68;75.47;100016.09;7358395;19;20078;-57
2023/07/07 02:51:29;;;;;;;0.10;0.10;;;;;;;19.68;75.19;100020.56;7359510;19;20021;-57
2023/07/07 02:53:55;;;;;;;0.10;0.10;;;;;;;19.69;75.54;100022.25;7360452;19;20125;-55
2023/07/07 02:56:20;;;;;;;0.10;0.10;;;;;;;19.67;75.57;100021.53;7359662;19;20047;-56
2023/07/07 02:58:46;;;;;;;0.10;0.10;;;;;;;19.66;75.14;100023.31;7359700;19;20011;-57
2023/07/07 03:01:14;;;;;;;0.10;0.10;;;;;;;19.68;75.58;100039.09;7360021;19;20620;-55
2023/07/07 03:03:42;;;;;;;0.20;0.20;;;;;;;19.68;75.50;100045.25;7358845;19;20025;-56
2023/07/07 03:06:11;;;;;;;0.10;0.10;;;;;;;19.67;75.33;100032.97;7366271;19;20029;-56
2023/07/07 03:08:36;;;;;;;0.10;0.10;;;;;;;19.65;75.07;100031.38;7366849;19;25623;-56
2023/07/07 03:11:07;;;;;;;0.10;0.10;;;;;;;19.70;75.20;100031.88;7367122;19;20078;-57
2023/07/07 03:13:33;;;;;;;0.10;0.10;;;;;;;19.65;75.07;100039.31;7365880;19;20009;-57
2023/07/07 03:15:58;;;;;;;0.10;0.10;;;;;;;19.66;74.99;100036.53;7364991;19;20006;-57
2023/07/07 03:18:24;;;;;;;0.10;0.10;;;;;;;19.68;75.17;100039.09;7359979;19;20007;-57
2023/07/07 03:20:49;;;;;;;0.10;0.10;;;;;;;19.68;75.04;100044.41;7366292;19;20011;-56
2023/07/07 03:23:15;;;;;;;0.10;0.10;;;;;;;19.66;74.72;100041.00;7365488;19;20006;-57
2023/07/07 03:25:40;;;;;;;0.10;0.10;;;;;;;19.66;74.86;100046.28;7366290;19;20014;-57
2023/07/07 03:28:05;;;;;;;0.10;0.10;;;;;;;19.64;75.15;100048.22;7367757;19;20011;-57
2023/07/07 03:30:34;;;;;;;0.10;0.10;;;;;;;19.63;75.27;100043.88;7363520;19;20065;-56
2023/07/07 03:32:59;;;;;;;0.10;0.10;;;;;;;19.48;75.43;100026.41;7366398;19;20117;-55
2023/07/07 03:35:25;;;;;;;0.20;0.20;;;;;;;19.58;75.03;100038.88;7366462;19;20358;-57
2023/07/07 03:37:50;;;;;;;0.10;0.10;;;;;;;19.57;74.87;100046.94;7365860;19;20010;-56
2023/07/07 03:40:15;;;;;;;0.10;0.10;;;;;;;19.55;75.11;100043.53;7365754;19;20007;-57
2023/07/07 03:42:41;;;;;;;0.10;0.10;;;;;;;19.52;74.83;100044.63;7365302;19;20035;-57
2023/07/07 03:45:06;;;;;;;0.10;0.10;;;;;;;19.39;74.92;100028.72;7365685;19;20011;-57
2023/07/07 03:47:32;;;;;;;0.10;0.10;;;;;;;19.48;75.73;100050.22;7368066;19;20045;-56
2023/07/07 03:49:59;;;;;;;0.10;0.10;;;;;;;19.45;75.61;100046.81;7367130;19;20023;-57
2023/07/07 03:52:25;;;;;;;0.10;0.10;;;;;;;19.44;75.50;100046.94;7366176;19;20838;-57
2023/07/07 03:54:50;;;;;;;0.10;0.10;;;;;;;19.42;75.61;100060.28;7365578;19;22189;-56
2023/07/07 03:57:16;;;;;;;0.10;0.10;;;;;;;19.44;75.82;100057.53;7366546;19;20018;-56
2023/07/07 03:59:41;;;;;;;0.00;0.00;;;;;;;19.44;75.90;100047.78;7367681;19;20027;-57
2023/07/07 04:02:07;;;;;;;0.10;0.10;;;;;;;19.34;75.77;100048.53;7361560;19;20017;-57
2023/07/07 04:04:32;;;;;;;0.10;0.10;;;;;;;19.48;75.73;100060.81;7362257;19;20010;-57
2023/07/07 04:06:58;;;;;;;0.10;0.10;;;;;;;19.50;75.89;100065.03;7359983;19;20002;-57
2023/07/07 04:09:24;;;;;;;0.10;0.10;;;;;;;19.52;75.51;100064.97;7360880;19;20474;-56
2023/07/07 04:11:50;;;;;;;0.10;0.10;;;;;;;19.53;75.56;100069.28;7360378;19;20593;-57
2023/07/07 04:14:18;;;;;;;0.10;0.10;;;;;;;19.55;75.96;100075.31;7361401;19;20011;-57
2023/07/07 04:16:44;;;;;;;0.10;0.10;;;;;;;19.55;75.97;100065.56;7360184;19;20014;-56
2023/07/07 04:19:09;;;;;;;0.00;0.00;;;;;;;19.58;75.26;100070.66;7363433;19;21376;-57
2023/07/07 04:21:35;;;;;;;0.10;0.10;;;;;;;19.60;75.55;100073.22;7360316;19;20006;-56
2023/07/07 04:24:01;;;;;;;0.10;0.10;;;;;;;19.55;75.38;100062.06;7360551;19;20742;-57
2023/07/07 04:26:29;;;;;;;0.10;0.10;;;;;;;19.63;75.13;100065.06;7365389;19;20007;-57
2023/07/07 04:28:58;;;;;;;0.10;0.10;;;;;;;19.57;74.85;100065.47;7362359;19;20030;-57
2023/07/07 04:31:25;;;;;;;0.10;0.10;;;;;;;19.64;75.80;100080.84;7365768;19;20006;-57
2023/07/07 04:33:52;;;;;;;0.10;0.10;;;;;;;19.64;75.07;100085.31;7364520;19;20006;-57
2023/07/07 04:36:17;;;;;;;0.00;0.00;;;;;;;19.65;74.78;100087.00;7365572;19;20089;-56
2023/07/07 04:38:44;;;;;;;0.10;0.10;;;;;;;19.52;74.77;100054.34;7363667;19;20417;-55
2023/07/07 04:41:17;;;;;;;0.10;0.10;;;;;;;19.71;74.66;100091.84;7365269;19;20098;-57
2023/07/07 04:43:45;;;;;;;0.10;0.10;;;;;;;19.69;75.04;100083.19;7363324;19;20829;-56
2023/07/07 04:46:13;;;;;;;0.10;0.10;;;;;;;19.68;74.52;100084.13;7362954;19;20105;-57
2023/07/07 04:48:39;;;;;;;0.10;0.10;;;;;;;19.68;74.45;100086.78;7366597;19;20017;-56
2023/07/07 04:51:07;;;;;;;0.10;0.10;;;;;;;19.69;74.72;100089.31;7362907;19;20010;-57
2023/07/07 04:53:34;;;;;;;0.10;0.10;;;;;;;19.67;74.64;100093.88;7363034;19;20026;-55
2023/07/07 04:56:02;;;;;;;0.10;0.10;;;;;;;19.68;74.55;100102.69;7366053;19;20070;-57
2023/07/07 04:58:28;;;;;;;0.10;0.10;;;;;;;19.69;74.50;100109.66;7364360;19;20516;-56
2023/07/07 05:01:04;;;;;;;0.10;0.10;;;;;;;19.73;74.91;100105.84;7363085;19;20787;-56
2023/07/07 05:03:30;;;;;;;0.10;0.10;;;;;;;19.70;74.65;100112.19;7364145;19;20002;-57
2023/07/07 05:05:56;;;;;;;0.10;0.10;;;;;;;19.71;74.53;100113.03;7363842;19;20006;-57
2023/07/07 05:08:22;;;;;;;0.10;0.10;;;;;;;19.67;74.63;100106.28;7364491;19;20045;-57
2023/07/07 05:10:48;;;;;;;0.10;0.10;;;;;;;19.73;74.86;100116.44;7363517;19;20018;-56
2023/07/07 05:13:13;;;;;;;0.10;0.10;;;;;;;19.74;74.55;100118.13;7363724;19;20010;-56
2023/07/07 05:15:39;;;;;;;0.10;0.10;;;;;;;19.74;74.54;100107.53;7364311;19;20102;-57
2023/07/07 05:18:04;;;;;;;0.10;0.10;;;;;;;19.74;74.55;100107.53;7362819;19;20246;-57
2023/07/07 05:20:30;;;;;;;0.10;0.10;;;;;;;19.74;74.83;100112.00;7363039;19;20616;-56
2023/07/07 05:22:55;;;;;;;0.10;0.10;;;;;;;19.73;74.57;100111.16;7363714;19;20015;-57
2023/07/07 05:25:21;;;;;;;0.10;0.10;;;;;;;19.72;75.18;100111.25;7362549;19;20662;-57
2023/07/07 05:27:46;;;;;;;0.10;0.10;;;;;;;19.73;74.49;100105.00;7362340;19;20006;-57
2023/07/07 05:30:12;;;;;;;0.10;0.10;;;;;;;19.67;74.75;100103.66;7364727;19;20025;-56
2023/07/07 05:32:37;;;;;;;0.10;0.10;;;;;;;19.76;74.29;100110.91;7363086;19;20022;-55
2023/07/07 05:35:03;;;;;;;0.10;0.10;;;;;;;19.78;74.40;100111.69;7363242;19;20471;-56
2023/07/07 05:37:28;;;;;;;0.10;0.10;;;;;;;19.81;74.66;100110.59;7362213;19;20748;-59
2023/07/07 05:39:53;;;;;;;0.10;0.10;;;;;;;19.82;74.88;100110.50;7363723;19;20018;-57
2023/07/07 05:42:19;;;;;;;0.10;0.10;;;;;;;19.86;74.72;100121.72;7362706;19;20015;-55
2023/07/07 05:44:44;;;;;;;0.10;0.10;;;;;;;19.89;74.50;100117.06;7363957;19;20021;-56
2023/07/07 05:47:10;;;;;;;0.10;0.10;;;;;;;19.93;74.63;100126.50;7361161;19;20569;-56
2023/07/07 05:49:35;;;;;;;0.10;0.10;;;;;;;19.97;74.09;100113.84;7362642;19;20015;-56
2023/07/07 05:52:00;;;;;;;0.05;0.05;;;;;;;20.01;74.14;100125.09;7362677;19;20098;-56
2023/07/07 05:54:26;;;;;;;0.10;0.10;;;;;;;20.05;74.09;100132.72;7363656;19;20022;-57
2023/07/07 05:56:54;;;;;;;0.10;0.10;;;;;;;20.08;73.95;100134.31;7362126;19;20488;-57
2023/07/07 05:59:19;;;;;;;0.10;0.10;;;;;;;20.09;74.07;100138.66;7356179;19;20041;-57
2023/07/07 06:01:45;;;;;;;0.10;0.10;;;;;;;20.13;74.28;100145.44;7359381;19;20010;-57
2023/07/07 06:04:10;;;;;;;0.10;0.10;;;;;;;20.13;74.16;100140.13;7357934;19;20006;-57
2023/07/07 06:06:36;;;;;;;0.10;0.10;;;;;;;20.14;74.13;100145.31;7356561;19;20018;-57
2023/07/07 06:09:01;;;;;;;0.10;0.10;;;;;;;20.12;74.04;100138.41;7357959;19;20015;-57
2023/07/07 06:11:27;;;;;;;0.10;0.10;;;;;;;20.14;74.44;100142.66;7357994;19;20011;-56
2023/07/07 06:13:52;;;;;;;0.10;0.10;;;;;;;20.15;74.06;100152.31;7357947;19;20023;-56
2023/07/07 06:16:18;;;;;;;0.10;0.10;;;;;;;20.18;73.74;100148.59;7358290;19;20514;-56
2023/07/07 06:18:43;;;;;;;0.10;0.10;;;;;;;20.19;73.72;100148.50;7357565;19;20007;-56
2023/07/07 06:21:09;;;;;;;0.10;0.10;;;;;;;20.19;73.74;100160.91;7358880;19;20003;-57
2023/07/07 06:23:34;;;;;;;0.10;0.10;;;;;;;20.20;73.95;100158.13;7357323;19;20017;-57
2023/07/07 06:26:00;;;;;;;0.10;0.10;;;;;;;20.15;73.88;100149.66;7360551;19;20007;-58
2023/07/07 06:28:26;;;;;;;0.10;0.10;;;;;;;20.21;73.54;100180.19;7361110;19;20093;-56
2023/07/07 06:30:52;;;;;;;0.10;0.10;;;;;;;20.21;73.35;100190.78;7358709;19;20647;-57
2023/07/07 06:33:19;;;;;;;0.10;0.10;;;;;;;20.22;73.85;100184.53;7361560;19;20002;-56
2023/07/07 06:35:45;;;;;;;0.10;0.10;;;;;;;20.24;73.46;100176.50;7360088;19;20045;-55
2023/07/07 06:38:11;;;;;;;0.10;0.10;;;;;;;20.23;73.24;100178.28;7360875;19;20011;-57
2023/07/07 06:40:36;;;;;;;0.10;0.10;;;;;;;20.25;73.67;100170.22;7358619;19;20545;-56
2023/07/07 06:43:02;;;;;;;0.10;0.10;;;;;;;20.28;73.79;100176.16;7360566;19;20006;-57
2023/07/07 06:45:27;;;;;;;0.10;0.10;;;;;;;20.32;73.03;100171.47;7360504;19;20531;-56
2023/07/07 06:47:54;;;;;;;0.10;0.10;;;;;;;20.35;73.54;100168.59;7360648;19;20021;-56
2023/07/07 06:50:35;;;;;;;0.10;0.10;;;;;;;20.46;73.56;100163.38;7360056;19;20014;-56
2023/07/07 06:53:00;;;;;;;0.10;0.10;;;;;;;20.43;73.17;100166.25;7359523;19;20006;-57
2023/07/07 06:55:26;;;;;;;0.10;0.10;;;;;;;20.47;73.09;100176.53;7361533;19;20090;-57
2023/07/07 06:57:51;;;;;;;0.10;0.10;;;;;;;20.50;73.04;100186.09;7358008;19;20003;-57
2023/07/07 07:00:17;;;;;;;0.10;0.10;;;;;;;20.55;72.88;100177.81;7360300;19;20836;-57
2023/07/07 07:02:44;;;;;;;0.10;0.10;;;;;;;20.55;72.73;100181.31;7359566;19;21434;-56
2023/07/07 07:05:09;;;;;;;0.10;0.10;;;;;;;20.61;72.78;100187.97;7360722;19;20049;-57
2023/07/07 07:07:35;;;;;;;0.10;0.10;;;;;;;20.63;72.06;100192.22;7359038;19;20006;-57
2023/07/07 07:10:02;;;;;;;0.08;0.08;;;;;;;20.67;72.31;100185.72;7357682;19;20537;-57
2023/07/07 07:12:28;;;;;;;0.10;0.10;;;;;;;20.72;71.87;100188.03;7358505;19;20368;-57
2023/07/07 07:14:54;;;;;;;0.10;0.10;;;;;;;20.80;72.94;100183.03;7360284;19;20065;-57
2023/07/07 07:17:21;;;;;;;0.10;0.10;;;;;;;20.85;71.71;100191.50;7358992;19;20477;-56
2023/07/07 07:19:47;;;;;;;0.10;0.10;;;;;;;20.88;71.57;100191.28;7359212;19;20018;-57
2023/07/07 07:22:12;;;;;;;0.10;0.10;;;;;;;20.90;70.69;100181.38;7360021;19;20692;-57
2023/07/07 07:24:38;;;;;;;0.10;0.10;;;;;;;20.92;70.53;100182.09;7360079;19;20030;-56
2023/07/07 07:27:04;;;;;;;0.10;0.10;;;;;;;20.96;70.52;100170.31;7361586;19;20009;-57
2023/07/07 07:29:30;;;;;;;0.10;0.10;;;;;;;21.03;70.30;100188.41;7359228;19;20523;-56
2023/07/07 07:31:56;;;;;;;0.00;0.00;;;;;;;21.06;68.98;100172.28;7358263;19;20465;-57
2023/07/07 07:34:27;;;;;;;0.10;0.10;;;;;;;21.16;69.67;100186.56;7360418;19;20021;-55
2023/07/07 07:36:53;;;;;;;0.10;0.10;;;;;;;21.21;71.82;100192.38;7357436;19;20014;-57
2023/07/07 07:39:19;;;;;;;0.10;0.10;;;;;;;21.25;69.84;100199.16;7360121;19;20021;-57
2023/07/07 07:41:47;;;;;;;0.10;0.10;;;;;;;21.30;68.79;100186.41;7358949;19;20445;-55
2023/07/07 07:44:16;;;;;;;0.10;0.10;;;;;;;21.33;68.35;100188.81;7358679;19;20820;-55
2023/07/07 07:46:43;;;;;;;0.10;0.10;;;;;;;21.41;70.03;100189.09;7358004;19;20034;-56
2023/07/07 07:49:09;;;;;;;0.10;0.10;;;;;;;21.46;67.65;100194.91;7360747;19;20018;-57
2023/07/07 07:51:37;;;;;;;0.10;0.10;;;;;;;21.53;67.32;100203.22;7359685;19;20015;-57
2023/07/07 07:54:05;;;;;;;0.10;0.10;;;;;;;21.63;68.61;100214.00;7366284;19;20028;-56
2023/07/07 07:56:30;;;;;;;0.10;0.10;;;;;;;21.70;67.44;100201.97;7362956;19;20015;-57
2023/07/07 07:58:56;;;;;;;0.10;0.10;;;;;;;21.78;67.30;100194.22;7366357;19;21370;-57
2023/07/07 08:01:21;;;;;;;0.10;0.10;;;;;;;21.86;67.80;100209.59;7362400;19;20014;-57
2023/07/07 08:03:47;;;;;;;0.10;0.10;;;;;;;21.74;67.46;100180.31;7362072;19;20553;-57
2023/07/07 08:06:12;;;;;;;0.10;0.10;;;;;;;22.02;68.20;100224.22;7359709;19;20132;-57
2023/07/07 08:08:37;;;;;;;0.10;0.10;;;;;;;22.10;69.77;100222.75;7360088;19;20711;-57
2023/07/07 08:11:03;;;;;;;0.10;0.10;;;;;;;22.14;66.69;100216.28;7359245;19;20037;-55
2023/07/07 08:13:28;;;;;;;0.10;0.10;;;;;;;22.21;67.52;100217.50;7332673;19;20006;-57
2023/07/07 08:15:54;;;;;;;0.10;0.10;;;;;;;22.26;68.25;100233.94;7357987;19;20105;-57
2023/07/07 08:18:19;;;;;;;0.10;0.10;;;;;;;22.32;66.31;100227.28;7358720;19;20102;-57
2023/07/07 08:20:44;;;;;;;0.10;0.10;;;;;;;22.36;65.96;100234.91;7360704;19;20498;-57
2023/07/07 08:23:10;;;;;;;0.10;0.10;;;;;;;22.41;67.40;100237.22;7357518;19;20013;-57
2023/07/07 08:25:35;;;;;;;0.10;0.10;;;;;;;22.48;64.95;100236.59;7360481;19;20017;-56
2023/07/07 08:28:01;;;;;;;0.10;0.10;;;;;;;22.52;64.89;100243.34;7364139;19;20010;-57
2023/07/07 08:30:27;;;;;;;0.10;0.10;;;;;;;22.46;65.50;100209.25;7364123;19;20014;-56
2023/07/07 08:32:53;;;;;;;0.10;0.10;;;;;;;22.65;65.00;100229.91;7363721;19;20791;-57
2023/07/07 08:35:18;;;;;;;0.13;0.13;;;;;;;22.70;63.72;100226.88;7358713;19;20453;-57
2023/07/07 08:37:43;;;;;;;0.10;0.10;;;;;;;22.75;63.72;100236.16;7363683;19;20020;-57
2023/07/07 08:40:16;;;;;;;0.10;0.10;;;;;;;22.84;65.18;100234.59;7364110;19;20007;-57
2023/07/07 08:42:42;;;;;;;0.10;0.10;;;;;;;22.85;64.32;100238.94;7363137;19;20022;-57
2023/07/07 08:45:19;;;;;;;0.10;0.10;;;;;;;23.00;66.81;100245.72;7362579;19;20018;-57
2023/07/07 08:48:07;;;;;;;0.10;0.10;;;;;;;23.10;65.84;100250.28;7364254;19;20055;-57
2023/07/07 08:50:51;;;;;;;0.10;0.10;;;;;;;23.20;68.13;100252.06;7364627;19;20453;-57
2023/07/07 08:53:41;;;;;;;0.10;0.10;;;;;;;23.27;65.62;100239.94;7363634;19;20027;-56
2023/07/07 08:56:23;;;;;;;0.10;0.10;;;;;;;23.30;65.01;100246.81;7364275;19;20010;-57
2023/07/07 08:58:58;;;;;;;0.10;0.10;;;;;;;23.40;61.17;100263.72;7361749;19;20027;-57
2023/07/07 09:01:57;;;;;;;0.10;0.10;;;;;;;23.37;63.03;100248.00;7363459;19;20552;-57
2023/07/07 09:04:54;;;;;;;0.10;0.10;;;;;;;23.48;64.83;100271.94;7261194;19;2004375;-56
2023/07/07 09:07:33;;;;;;;0.10;0.10;;;;;;;23.51;62.61;100269.00;7261145;19;2004638;-57
2023/07/07 09:10:10;;;;;;;0.10;0.10;;;;;;;23.54;60.78;100266.09;7363384;19;20011;-57
2023/07/07 09:12:41;;;;;;;0.10;0.10;;;;;;;23.51;62.05;100258.34;7362868;19;20069;-56
2023/07/07 09:15:26;;;;;;;0.10;0.10;;;;;;;23.69;63.57;100280.00;7364440;19;20445;-57
2023/07/07 09:17:59;;;;;;;0.20;0.20;;;;;;;23.72;61.85;100289.53;7361694;19;20033;-57
2023/07/07 09:20:27;;;;;;;0.10;0.10;;;;;;;23.73;62.39;100296.59;7361336;19;20013;-56
2023/07/07 09:23:11;;;;;;;0.10;0.10;;;;;;;23.81;63.76;100288.75;7363451;19;20010;-57
2023/07/07 09:25:54;;;;;;;0.10;0.10;;;;;;;23.83;63.54;100292.16;7363621;19;20006;-56
2023/07/07 09:28:20;;;;;;;0.10;0.10;;;;;;;23.81;58.09;100299.44;7363564;19;20031;-57
2023/07/07 09:30:47;;;;;;;0.10;0.10;;;;;;;23.70;59.20;100286.16;7361639;19;20102;-57
2023/07/07 09:33:17;;;;;;;0.10;0.10;;;;;;;23.80;59.83;100309.25;7361478;19;20019;-57
2023/07/07 09:35:50;;;;;;;0.10;0.10;;;;;;;23.79;60.17;100318.22;7360605;19;20128;-57
2023/07/07 09:38:29;;;;;;;0.10;0.10;;;;;;;23.79;62.08;100315.56;7362190;19;20014;-57
2023/07/07 09:41:09;;;;;;;0.10;0.10;;;;;;;23.69;60.63;100300.47;7360881;19;20050;-57
2023/07/07 09:43:52;;;;;;;0.10;0.10;;;;;;;23.73;58.83;100320.56;7362423;19;20023;-57
2023/07/07 09:46:35;;;;;;;0.08;0.08;;;;;;;23.75;60.94;100321.28;7362708;19;20105;-57
2023/07/07 09:49:22;;;;;;;0.10;0.10;;;;;;;23.74;62.04;100324.94;7362072;19;20605;-56
2023/07/07 09:51:48;;;;;;;0.10;0.10;;;;;;;23.70;59.26;100328.81;7360751;19;20014;-57
2023/07/07 09:54:16;;;;;;;0.10;0.10;;;;;;;23.74;60.41;100340.94;7363531;19;20418;-56
2023/07/07 09:56:52;;;;;;;0.10;0.10;;;;;;;23.75;60.04;100326.63;7361956;19;20013;-55
2023/07/07 09:59:22;;;;;;;0.10;0.10;;;;;;;23.74;59.49;100324.94;7361767;19;20505;-56
2023/07/07 10:01:52;;;;;;;0.10;0.10;;;;;;;23.80;60.42;100337.75;7358019;19;20022;-56
2023/07/07 10:04:19;;;;;;;0.10;0.10;;;;;;;23.84;60.03;100336.50;7356901;19;20854;-55
2023/07/07 10:06:55;;;;;;;0.10;0.10;;;;;;;23.98;61.51;100338.03;7357175;19;20039;-56
2023/07/07 10:09:20;;;;;;;0.10;0.10;;;;;;;23.93;60.69;100314.41;7357560;19;21492;-55
2023/07/07 10:11:46;;;;;;;0.10;0.10;;;;;;;24.14;61.46;100342.91;7358846;19;22209;-57
2023/07/07 10:14:14;;;;;;;0.10;0.10;;;;;;;24.25;60.59;100341.00;7351122;19;20011;-53
2023/07/07 10:17:37;;;;;;;0.10;0.10;;;;;;;24.44;61.57;100353.66;7358411;19;20077;-55
2023/07/07 10:20:03;;;;;;;0.10;0.10;;;;;;;24.39;59.21;100342.53;7150272;19;2004741;-54
2023/07/07 10:22:29;;;;;;;0.10;0.10;;;;;;;24.42;59.00;100346.75;7351503;19;20003;-54
2023/07/07 10:24:54;;;;;;;0.10;0.10;;;;;;;24.48;58.85;100331.06;7358883;19;20006;-54
2023/07/07 10:27:26;;;;;;;0.10;0.10;;;;;;;24.69;60.46;100343.50;7361396;19;20371;-53
2023/07/07 10:29:57;;;;;;;0.10;0.10;;;;;;;24.77;58.94;100319.63;7362694;19;21948;-55
2023/07/07 10:32:24;;;;;;;0.10;0.10;;;;;;;25.00;59.15;100341.66;7360133;19;20015;-55
2023/07/07 10:34:56;;;;;;;0.10;0.10;;;;;;;25.26;59.33;100331.31;7361353;19;20048;-55
2023/07/07 10:37:24;;;;;;;0.10;0.10;;;;;;;25.45;56.95;100339.38;7361018;19;20014;-55
2023/07/07 10:39:55;;;;;;;0.08;0.08;;;;;;;25.69;58.48;100348.78;7362254;19;20030;-52
2023/07/07 10:42:23;;;;;;;0.10;0.10;;;;;;;25.84;57.64;100344.75;7361307;19;20030;-55
2023/07/07 10:44:50;;;;;;;0.05;0.05;;;;;;;25.97;56.10;100341.78;7361968;19;20013;-53
2023/07/07 10:47:22;;;;;;;0.00;0.00;;;;;;;26.17;55.69;100337.25;7357021;19;20778;-53
2023/07/07 10:49:48;;;;;;;0.10;0.10;;;;;;;26.30;55.88;100348.47;7360746;19;20466;-54
2023/07/07 10:52:41;;;;;;;0.00;0.00;;;;;;;26.57;56.11;100334.34;7361827;19;20021;-55
2023/07/07 10:55:27;;;;;;;0.00;0.00;;;;;;;26.93;56.17;100346.03;7258892;19;2005168;-55
2023/07/07 10:58:13;;;;;;;0.00;0.00;;;;;;;27.10;55.16;100342.56;7259539;19;2004419;-55
2023/07/07 11:01:15;;;;;;;0.10;0.10;;;;;;;27.20;53.94;100349.72;7360669;19;20422;-55
2023/07/07 11:04:02;;;;;;;0.20;0.20;;;;;;;27.15;52.34;100334.91;7259377;19;2004381;-55
2023/07/07 11:06:51;;;;;;;0.10;0.10;;;;;;;27.05;51.96;100339.47;7258990;19;2004397;-55
2023/07/07 11:09:34;;;;;;;0.10;0.10;;;;;;;26.91;51.00;100331.91;7358598;19;20018;-53
2023/07/07 11:12:17;;;;;;;0.10;0.10;;;;;;;26.79;51.86;100358.06;7360793;19;20026;-54
2023/07/07 11:14:57;;;;;;;0.10;0.10;;;;;;;26.63;51.55;100349.81;7359765;19;20010;-53
2023/07/07 11:17:44;;;;;;;0.10;0.10;;;;;;;26.22;52.82;100316.25;7359682;19;20082;-56
2023/07/07 11:20:40;;;;;;;0.10;0.10;;;;;;;26.34;52.59;100353.41;7360289;19;20014;-55
2023/07/07 11:23:24;;;;;;;0.10;0.10;;;;;;;26.23;52.57;100379.50;7259281;19;2004518;-54
2023/07/07 11:26:20;;;;;;;0.10;0.10;;;;;;;26.11;53.16;100376.97;7361483;19;20010;-55
2023/07/07 11:28:52;;;;;;;0.10;0.10;;;;;;;25.96;51.84;100362.34;7263249;19;2004257;-56
2023/07/07 11:31:55;;;;;;;0.10;0.10;;;;;;;25.84;52.54;100395.56;7367072;19;20014;-55
2023/07/07 11:34:40;;;;;;;0.10;0.10;;;;;;;25.61;52.87;100385.13;7264840;19;2004182;-55
2023/07/07 11:37:15;;;;;;;0.10;0.10;;;;;;;25.36;53.00;100389.16;7364733;19;20033;-55
2023/07/07 11:40:01;;;;;;;0.10;0.10;;;;;;;25.16;53.58;100379.41;7366947;19;20010;-55